Time;durP1;ratioP1;P1;durP2;ratioP2;P2;SDS_P1;SDS_P2;PMS_P1;PMS_P2;Temp;Humidity;BMP_temperature;BMP_pressure;BME280_temperature;BME280_humidity;BME280_pressure;Samples;Min_cycle;Max_cycle;Signal;HPM_P1;HPM_P2
2022/04/19 00:00:35;;;;;;;;;;;5.90;99.90;;;;;;5135436;27;19907;-74
2022/04/19 00:03:02;;;;;;;;;;;5.90;99.90;;;;;;5135777;27;19911;-74
2022/04/19 00:05:28;;;;;;;;;;;5.90;99.90;;;;;;5134960;27;19930;-74
2022/04/19 00:07:54;;;;;;;;;;;5.90;99.90;;;;;;5135659;27;19914;-74
2022/04/19 00:10:19;;;;;;;;;;;5.80;99.90;;;;;;5116690;27;19907;-74
2022/04/19 00:12:45;;;;;;;;;;;5.80;99.90;;;;;;5135229;27;19907;-74
2022/04/19 00:15:11;;;;;;;;;;;5.70;99.90;;;;;;5135272;27;19933;-75
2022/04/19 00:17:37;;;;;;;;;;;5.70;99.90;;;;;;5135059;27;20276;-75
2022/04/19 00:20:03;;;;;;;;;;;5.70;99.90;;;;;;5135391;27;20396;-74
2022/04/19 00:22:28;;;;;;;;;;;5.60;99.90;;;;;;5134497;27;20376;-74
2022/04/19 00:24:55;;;;;;;;;;;5.60;99.90;;;;;;5135229;27;19929;-75
2022/04/19 00:27:21;;;;;;;;;;;5.60;99.90;;;;;;5134401;27;20378;-75
2022/04/19 00:29:47;;;;;;;;;;;5.60;99.90;;;;;;5135318;27;19999;-75
2022/04/19 00:32:12;;;;;;;;;;;5.50;99.90;;;;;;5134763;27;19912;-75
2022/04/19 00:34:41;;;;;;;;;;;5.60;99.90;;;;;;5135574;27;19919;-75
2022/04/19 00:37:07;;;;;;;;;;;5.60;99.90;;;;;;5135298;27;19915;-75
2022/04/19 00:39:33;;;;;;;;;;;5.50;99.90;;;;;;5134536;27;19919;-74
2022/04/19 00:42:00;;;;;;;;;;;5.50;99.90;;;;;;5135246;27;20360;-75
2022/04/19 00:44:25;;;;;;;;;;;5.60;99.90;;;;;;5133951;27;20391;-74
2022/04/19 00:46:51;;;;;;;;;;;5.50;99.90;;;;;;5134784;27;19907;-74
2022/04/19 00:49:17;;;;;;;;;;;5.40;99.90;;;;;;5134271;27;19914;-74
2022/04/19 00:51:46;;;;;;;;;;;5.40;99.90;;;;;;5133882;27;19911;-74
2022/04/19 00:54:13;;;;;;;;;;;5.30;99.90;;;;;;5134163;27;19907;-74
2022/04/19 00:56:40;;;;;;;;;;;5.30;99.90;;;;;;5134843;27;19923;-74
2022/04/19 00:59:05;;;;;;;;;;;5.20;99.90;;;;;;5134665;27;19923;-74
2022/04/19 01:01:31;;;;;;;;;;;5.00;99.90;;;;;;5134208;27;19908;-74
2022/04/19 01:03:58;;;;;;;;;;;5.00;99.90;;;;;;5134279;27;19946;-75
2022/04/19 01:06:23;;;;;;;;;;;4.90;99.90;;;;;;5134006;27;19918;-75
2022/04/19 01:08:49;;;;;;;;;;;4.80;99.90;;;;;;5134465;27;19908;-75
2022/04/19 01:14:02;;;;;;;;;;;4.80;99.90;;;;;;5134084;27;19914;-74
2022/04/19 01:16:28;;;;;;;;;;;4.80;99.90;;;;;;5133066;27;19915;-74
2022/04/19 01:18:54;;;;;;;;;;;4.90;99.90;;;;;;5134371;27;19919;-74
2022/04/19 01:21:20;;;;;;;;;;;4.90;99.90;;;;;;5133754;27;19907;-74
2022/04/19 01:23:45;;;;;;;;;;;4.90;99.90;;;;;;5134114;27;19914;-74
2022/04/19 01:26:11;;;;;;;;;;;5.00;99.90;;;;;;5134055;27;19930;-74
2022/04/19 01:28:36;;;;;;;;;;;5.00;99.90;;;;;;5133951;27;19957;-74
2022/04/19 01:31:03;;;;;;;;;;;5.10;99.90;;;;;;5134109;27;19953;-74
2022/04/19 01:33:28;;;;;;;;;;;5.10;99.90;;;;;;5115184;27;19911;-74
2022/04/19 01:35:54;;;;;;;;;;;5.00;99.90;;;;;;5133969;27;20380;-75
2022/04/19 01:38:20;;;;;;;;;;;4.90;99.90;;;;;;5133321;27;19916;-74
2022/04/19 01:40:46;;;;;;;;;;;4.80;99.90;;;;;;5133518;27;20360;-74
2022/04/19 01:43:11;;;;;;;;;;;4.80;99.90;;;;;;5134149;27;19922;-75
2022/04/19 01:45:38;;;;;;;;;;;4.80;99.90;;;;;;5132940;27;19908;-75
2022/04/19 01:48:03;;;;;;;;;;;4.80;99.90;;;;;;5133756;27;19930;-75
2022/04/19 01:50:29;;;;;;;;;;;4.90;99.90;;;;;;5132744;27;20297;-75
2022/04/19 01:52:56;;;;;;;;;;;5.00;99.90;;;;;;5133804;27;20014;-75
2022/04/19 01:55:22;;;;;;;;;;;4.90;99.90;;;;;;5132803;27;19971;-74
2022/04/19 01:57:49;;;;;;;;;;;4.90;99.90;;;;;;5115150;27;19912;-75
2022/04/19 02:00:15;;;;;;;;;;;4.90;99.90;;;;;;5133172;27;19907;-75
2022/04/19 02:02:43;;;;;;;;;;;4.80;99.90;;;;;;5133180;27;19907;-74
2022/04/19 02:05:08;;;;;;;;;;;4.90;99.90;;;;;;5133399;27;19912;-74
2022/04/19 02:07:37;;;;;;;;;;;4.80;99.90;;;;;;5133005;27;20084;-75
2022/04/19 02:10:04;;;;;;;;;;;4.70;99.90;;;;;;5133182;27;20326;-74
2022/04/19 02:12:31;;;;;;;;;;;4.60;99.90;;;;;;5132752;27;19911;-75
2022/04/19 02:14:56;;;;;;;;;;;4.50;99.90;;;;;;5133123;27;19921;-74
2022/04/19 02:17:23;;;;;;;;;;;4.40;99.90;;;;;;5132867;27;19907;-74
2022/04/19 02:19:59;;;;;;;;;;;4.40;99.90;;;;;;5133165;27;19976;-75
2022/04/19 02:22:25;;;;;;;;;;;4.20;99.90;;;;;;5132523;27;20321;-75
2022/04/19 02:24:51;;;;;;;;;;;4.10;99.90;;;;;;5133206;27;19908;-74
2022/04/19 02:27:20;;;;;;;;;;;4.20;99.90;;;;;;5132311;27;19973;-74
2022/04/19 02:29:45;;;;;;;;;;;4.20;99.90;;;;;;5115331;27;19907;-75
2022/04/19 02:32:12;;;;;;;;;;;4.20;99.90;;;;;;5132845;27;19914;-74
2022/04/19 02:34:37;;;;;;;;;;;4.30;99.90;;;;;;5132344;27;19912;-74
2022/04/19 02:37:03;;;;;;;;;;;4.30;99.90;;;;;;5132588;27;19907;-75
2022/04/19 02:39:29;;;;;;;;;;;4.30;99.90;;;;;;5132109;27;19916;-75
2022/04/19 02:41:55;;;;;;;;;;;4.40;99.90;;;;;;5114601;28;20375;-74
2022/04/19 02:44:20;;;;;;;;;;;4.20;99.90;;;;;;5132051;28;19907;-74
2022/04/19 02:46:46;;;;;;;;;;;4.20;99.90;;;;;;5132574;28;20134;-74
2022/04/19 02:49:11;;;;;;;;;;;4.30;99.90;;;;;;5132802;28;19960;-74
2022/04/19 02:51:37;;;;;;;;;;;4.30;99.90;;;;;;5132433;28;19912;-74
2022/04/19 02:54:03;;;;;;;;;;;4.30;99.90;;;;;;5132928;28;19914;-75
2022/04/19 02:56:29;;;;;;;;;;;4.40;99.90;;;;;;5132225;28;19924;-74
2022/04/19 02:58:54;;;;;;;;;;;4.40;99.90;;;;;;5132803;28;20271;-75
2022/04/19 03:01:20;;;;;;;;;;;4.40;99.90;;;;;;5132273;28;19964;-74
2022/04/19 03:03:45;;;;;;;;;;;4.40;99.90;;;;;;5132868;28;20261;-74
2022/04/19 03:06:11;;;;;;;;;;;4.30;99.90;;;;;;5132729;28;19908;-74
2022/04/19 03:08:36;;;;;;;;;;;4.30;99.90;;;;;;5132195;28;19954;-74
2022/04/19 03:11:03;;;;;;;;;;;4.20;99.90;;;;;;5132654;28;19915;-74
2022/04/19 03:13:29;;;;;;;;;;;4.20;99.90;;;;;;5132099;28;19919;-74
2022/04/19 03:15:55;;;;;;;;;;;4.10;99.90;;;;;;5135402;27;19914;-75
2022/04/19 03:18:21;;;;;;;;;;;4.10;99.90;;;;;;5136125;27;19915;-74
2022/04/19 03:20:47;;;;;;;;;;;4.10;99.90;;;;;;5136517;27;19916;-74
2022/04/19 03:28:41;;;;;;;;;;;4.30;99.90;;;;;;5136135;27;19952;-74
2022/04/19 03:31:07;;;;;;;;;;;4.20;99.90;;;;;;5136477;27;19911;-74
2022/04/19 03:33:33;;;;;;;;;;;4.30;99.90;;;;;;5135628;27;19986;-74
2022/04/19 03:35:59;;;;;;;;;;;4.30;99.90;;;;;;5136386;27;19912;-74
2022/04/19 03:38:24;;;;;;;;;;;4.40;99.90;;;;;;5135691;27;20340;-74
2022/04/19 03:40:50;;;;;;;;;;;4.40;99.90;;;;;;5136047;27;19997;-74
2022/04/19 03:43:16;;;;;;;;;;;4.50;99.90;;;;;;5136122;27;19961;-74
2022/04/19 03:45:41;;;;;;;;;;;4.50;99.90;;;;;;5136242;27;20345;-74
2022/04/19 03:48:07;;;;;;;;;;;4.60;99.90;;;;;;5135997;27;19935;-74
2022/04/19 03:50:33;;;;;;;;;;;4.70;99.90;;;;;;5135328;27;20005;-74
2022/04/19 03:52:58;;;;;;;;;;;4.70;99.90;;;;;;5136207;27;19936;-75
2022/04/19 03:55:24;;;;;;;;;;;4.70;99.90;;;;;;5134905;27;19927;-74
2022/04/19 03:57:50;;;;;;;;;;;4.60;99.90;;;;;;5135909;27;19991;-74
2022/04/19 04:00:15;;;;;;;;;;;4.50;99.90;;;;;;5117577;27;19911;-74
2022/04/19 04:02:41;;;;;;;;;;;4.60;99.90;;;;;;5135246;27;19911;-74
2022/04/19 04:05:07;;;;;;;;;;;4.50;99.90;;;;;;5135914;27;19913;-75
2022/04/19 04:07:38;;;;;;;;;;;4.50;99.90;;;;;;5135265;27;19936;-74
2022/04/19 04:10:04;;;;;;;;;;;4.50;99.90;;;;;;5135672;27;19953;-75
2022/04/19 04:12:29;;;;;;;;;;;4.50;99.90;;;;;;5135100;27;19963;-74
2022/04/19 04:14:55;;;;;;;;;;;4.40;99.90;;;;;;5135956;27;20302;-74
2022/04/19 04:17:21;;;;;;;;;;;4.30;99.90;;;;;;5134906;27;19911;-74
2022/04/19 04:19:46;;;;;;;;;;;4.20;99.90;;;;;;5135537;27;19915;-74
2022/04/19 04:22:12;;;;;;;;;;;4.10;99.90;;;;;;5135466;27;20298;-74
2022/04/19 04:24:38;;;;;;;;;;;4.00;99.90;;;;;;5135004;27;20763;-74
2022/04/19 04:27:03;;;;;;;;;;;4.00;99.90;;;;;;5135513;27;19908;-75
2022/04/19 04:29:30;;;;;;;;;;;3.90;99.90;;;;;;5135141;27;20249;-75
2022/04/19 04:31:55;;;;;;;;;;;3.90;99.90;;;;;;5135224;27;19907;-74
2022/04/19 04:34:21;;;;;;;;;;;3.90;99.90;;;;;;5134562;27;19914;-74
2022/04/19 04:36:46;;;;;;;;;;;3.90;99.90;;;;;;5135101;27;19907;-75
2022/04/19 04:39:14;;;;;;;;;;;3.90;99.90;;;;;;5134675;27;20434;-75
2022/04/19 04:41:40;;;;;;;;;;;3.90;99.90;;;;;;5134372;27;19915;-75
2022/04/19 04:44:05;;;;;;;;;;;4.00;99.90;;;;;;5134854;27;19907;-75
2022/04/19 04:51:59;;;;;;;;;;;4.00;99.90;;;;;;5134527;27;19961;-74
2022/04/19 04:54:25;;;;;;;;;;;3.90;99.90;;;;;;5134127;27;20351;-74
2022/04/19 04:56:52;;;;;;;;;;;3.80;99.90;;;;;;5134320;27;20299;-74
2022/04/19 04:59:17;;;;;;;;;;;3.70;99.90;;;;;;5134176;27;19916;-74
2022/04/19 05:01:43;;;;;;;;;;;3.70;99.90;;;;;;5134397;27;19918;-74
2022/04/19 05:04:09;;;;;;;;;;;3.70;99.90;;;;;;5116149;27;19907;-74
2022/04/19 05:06:34;;;;;;;;;;;3.70;99.90;;;;;;5133595;27;19908;-74
2022/04/19 05:09:00;;;;;;;;;;;3.60;99.90;;;;;;5134448;27;20375;-74
2022/04/19 05:11:25;;;;;;;;;;;3.60;99.90;;;;;;5133802;27;20008;-74
2022/04/19 05:13:51;;;;;;;;;;;3.60;99.90;;;;;;5134143;27;19914;-74
2022/04/19 05:16:16;;;;;;;;;;;3.60;99.90;;;;;;5134215;27;19915;-74
2022/04/19 05:18:42;;;;;;;;;;;3.60;99.90;;;;;;5133557;27;19915;-74
2022/04/19 05:21:08;;;;;;;;;;;3.60;99.90;;;;;;5134082;27;20371;-74
2022/04/19 05:23:34;;;;;;;;;;;3.70;99.90;;;;;;5133338;27;20362;-74
2022/04/19 05:26:00;;;;;;;;;;;3.70;99.90;;;;;;5134145;27;19914;-74
2022/04/19 05:28:25;;;;;;;;;;;3.70;99.90;;;;;;5132964;27;19911;-74
2022/04/19 05:30:51;;;;;;;;;;;3.70;99.90;;;;;;5134112;27;19914;-74
2022/04/19 05:33:16;;;;;;;;;;;3.70;99.90;;;;;;5133885;27;20002;-74
2022/04/19 05:35:42;;;;;;;;;;;3.70;99.90;;;;;;5133364;27;19908;-74
2022/04/19 05:38:08;;;;;;;;;;;3.70;99.90;;;;;;5133534;27;19964;-74
2022/04/19 05:40:33;;;;;;;;;;;3.80;99.90;;;;;;5133281;27;19908;-74
2022/04/19 05:42:59;;;;;;;;;;;3.80;99.90;;;;;;5133233;27;19908;-74
2022/04/19 05:45:25;;;;;;;;;;;3.90;99.90;;;;;;5132835;27;19911;-74
2022/04/19 05:47:51;;;;;;;;;;;4.00;99.90;;;;;;5133583;27;19907;-74
2022/04/19 05:50:17;;;;;;;;;;;4.00;99.90;;;;;;5133829;27;19915;-75
2022/04/19 05:52:42;;;;;;;;;;;4.20;99.90;;;;;;5132736;27;19914;-75
2022/04/19 05:55:08;;;;;;;;;;;4.30;99.90;;;;;;5133017;27;19942;-74
2022/04/19 05:57:33;;;;;;;;;;;4.30;99.90;;;;;;5132840;27;19908;-74
2022/04/19 05:59:59;;;;;;;;;;;4.30;99.90;;;;;;5133168;27;20020;-74
2022/04/19 06:05:09;;;;;;;;;;;4.60;99.90;;;;;;5133257;27;20371;-75
2022/04/19 06:07:41;;;;;;;;;;;4.80;99.90;;;;;;5132896;27;19907;-74
2022/04/19 06:10:07;;;;;;;;;;;5.00;99.90;;;;;;5133300;27;19911;-75
2022/04/19 06:12:32;;;;;;;;;;;5.10;99.90;;;;;;5132644;27;20002;-75
2022/04/19 06:14:58;;;;;;;;;;;5.30;99.90;;;;;;5132965;27;19912;-75
2022/04/19 06:17:27;;;;;;;;;;;5.50;99.90;;;;;;5132394;27;20423;-74
2022/04/19 06:19:52;;;;;;;;;;;5.60;99.90;;;;;;5133055;27;19922;-75
2022/04/19 06:22:18;;;;;;;;;;;5.80;99.90;;;;;;5132928;27;19911;-75
2022/04/19 06:24:43;;;;;;;;;;;5.90;99.90;;;;;;5131258;27;19907;-75
2022/04/19 06:27:09;;;;;;;;;;;6.10;99.90;;;;;;5132807;27;19935;-74
2022/04/19 06:29:34;;;;;;;;;;;6.10;99.90;;;;;;5132252;27;19929;-74
2022/04/19 06:32:00;;;;;;;;;;;6.20;99.90;;;;;;5132829;27;19908;-74
2022/04/19 06:34:26;;;;;;;;;;;6.30;99.90;;;;;;5113602;27;19914;-74
2022/04/19 06:36:51;;;;;;;;;;;6.40;99.90;;;;;;5132529;27;19915;-75
2022/04/19 06:39:17;;;;;;;;;;;6.50;99.90;;;;;;5114418;28;20031;-75
2022/04/19 06:41:43;;;;;;;;;;;6.70;99.90;;;;;;5113495;28;20275;-75
2022/04/19 06:44:09;;;;;;;;;;;6.80;99.90;;;;;;5132469;28;20006;-75
2022/04/19 06:46:36;;;;;;;;;;;6.80;99.90;;;;;;5131804;28;20337;-75
2022/04/19 06:49:07;;;;;;;;;;;6.80;99.90;;;;;;5132339;27;19953;-75
2022/04/19 06:51:33;;;;;;;;;;;6.90;99.90;;;;;;5136098;27;20412;-75
2022/04/19 06:53:58;;;;;;;;;;;7.00;99.90;;;;;;5118459;27;19912;-74
2022/04/19 06:56:24;;;;;;;;;;;7.10;99.90;;;;;;5136464;27;20352;-74
2022/04/19 06:58:50;;;;;;;;;;;7.30;99.90;;;;;;5136897;27;19939;-75
2022/04/19 07:01:16;;;;;;;;;;;7.50;99.90;;;;;;5136877;27;19907;-74
2022/04/19 07:03:42;;;;;;;;;;;7.60;99.90;;;;;;5136079;27;19911;-74
2022/04/19 07:06:07;;;;;;;;;;;7.70;99.90;;;;;;5136776;27;19922;-74
2022/04/19 07:08:33;;;;;;;;;;;7.90;99.90;;;;;;5135793;27;20031;-74
2022/04/19 07:11:00;;;;;;;;;;;8.00;99.90;;;;;;5136544;27;19915;-74
2022/04/19 07:13:26;;;;;;;;;;;8.20;99.90;;;;;;5117320;27;19979;-74
2022/04/19 07:15:51;;;;;;;;;;;8.30;99.90;;;;;;5136264;27;19907;-74
2022/04/19 07:18:17;;;;;;;;;;;8.50;99.90;;;;;;5136623;27;20284;-74
2022/04/19 07:29:10;;;;;;;;;;;8.90;99.90;;;;;;5093795;27;19934;-75
2022/04/19 07:31:40;;;;;;;;;;;9.10;99.90;;;;;;5134268;27;19999;-75
2022/04/19 07:34:06;;;;;;;;;;;9.20;99.90;;;;;;5134089;27;19908;-74
2022/04/19 07:36:33;;;;;;;;;;;9.20;99.90;;;;;;5134960;27;19907;-74
2022/04/19 07:38:59;;;;;;;;;;;9.30;99.90;;;;;;5136066;27;19926;-74
2022/04/19 07:41:25;;;;;;;;;;;9.30;99.90;;;;;;5134813;27;19908;-74
2022/04/19 07:43:51;;;;;;;;;;;9.40;99.90;;;;;;5136062;27;19911;-74
2022/04/19 07:46:18;;;;;;;;;;;9.50;99.90;;;;;;5136035;27;20246;-73
2022/04/19 07:48:44;;;;;;;;;;;9.60;99.90;;;;;;5135297;27;19933;-74
2022/04/19 07:51:10;;;;;;;;;;;9.70;99.90;;;;;;5134652;27;20044;-74
2022/04/19 07:53:35;;;;;;;;;;;9.70;99.90;;;;;;5134715;27;19908;-74
2022/04/19 07:56:02;;;;;;;;;;;9.80;99.90;;;;;;5135383;27;20442;-74
2022/04/19 07:58:27;;;;;;;;;;;9.90;99.90;;;;;;5116638;27;20283;-74
2022/04/19 08:00:53;;;;;;;;;;;9.90;99.90;;;;;;5134585;27;20010;-74
2022/04/19 08:03:19;;;;;;;;;;;10.00;99.90;;;;;;5135289;27;19961;-74
2022/04/19 08:05:44;;;;;;;;;;;10.00;99.90;;;;;;5137530;27;19918;-74
2022/04/19 08:08:10;;;;;;;;;;;10.10;99.90;;;;;;5156393;27;19911;-74
2022/04/19 08:10:36;;;;;;;;;;;10.20;99.90;;;;;;5155712;27;20316;-74
2022/04/19 08:13:04;;;;;;;;;;;10.20;99.90;;;;;;5144045;27;19907;-74
2022/04/19 08:15:30;;;;;;;;;;;10.30;99.90;;;;;;5155572;27;19911;-74
2022/04/19 08:17:57;;;;;;;;;;;10.30;99.90;;;;;;5155755;27;20328;-74
2022/04/19 08:20:22;;;;;;;;;;;10.30;99.90;;;;;;5154503;27;20038;-74
2022/04/19 08:22:48;;;;;;;;;;;10.20;99.90;;;;;;5137352;27;19920;-74
2022/04/19 08:25:14;;;;;;;;;;;10.10;99.90;;;;;;5155823;27;19914;-74
2022/04/19 08:27:42;;;;;;;;;;;10.00;99.90;;;;;;5127472;27;19914;-74
2022/04/19 08:30:08;;;;;;;;;;;10.00;99.90;;;;;;5155603;27;20329;-74
2022/04/19 08:32:34;;;;;;;;;;;9.90;99.90;;;;;;5154616;27;19907;-73
2022/04/19 08:34:59;;;;;;;;;;;9.90;99.90;;;;;;5155116;27;20275;-73
2022/04/19 08:37:32;;;;;;;;;;;10.00;99.90;;;;;;5154923;27;19914;-74
2022/04/19 08:39:58;;;;;;;;;;;10.20;99.90;;;;;;5155616;27;19915;-74
2022/04/19 08:42:23;;;;;;;;;;;10.20;99.90;;;;;;5140195;27;19914;-74
2022/04/19 08:44:49;;;;;;;;;;;10.40;99.90;;;;;;5134534;27;20275;-74
2022/04/19 08:47:15;;;;;;;;;;;10.50;99.90;;;;;;5134753;27;19950;-75
2022/04/19 08:49:41;;;;;;;;;;;10.60;99.90;;;;;;5133792;27;19915;-74
2022/04/19 08:52:07;;;;;;;;;;;10.70;99.90;;;;;;5133991;27;19914;-74
2022/04/19 08:57:29;;;;;;;;;;;10.60;99.90;;;;;;5132318;27;20353;-75
2022/04/19 08:59:55;;;;;;;;;;;10.50;99.90;;;;;;5134135;27;19915;-75
2022/04/19 09:02:22;;;;;;;;;;;10.60;99.90;;;;;;5115344;27;19907;-74
2022/04/19 09:04:50;;;;;;;;;;;10.70;99.90;;;;;;5133470;27;19914;-74
2022/04/19 09:07:16;;;;;;;;;;;10.70;99.90;;;;;;5134338;27;19962;-74
2022/04/19 09:09:41;;;;;;;;;;;10.80;99.90;;;;;;5133595;27;20470;-74
2022/04/19 09:12:07;;;;;;;;;;;10.70;99.90;;;;;;5132726;27;20002;-74
2022/04/19 09:14:33;;;;;;;;;;;10.60;99.90;;;;;;5133414;27;20253;-74
2022/04/19 09:17:02;;;;;;;;;;;10.70;99.90;;;;;;5134020;27;19919;-74
2022/04/19 09:19:28;;;;;;;;;;;10.70;99.90;;;;;;5133366;27;20000;-74
2022/04/19 09:21:54;;;;;;;;;;;10.80;99.90;;;;;;5143669;27;19911;-74
2022/04/19 09:24:20;;;;;;;;;;;10.90;99.90;;;;;;5154187;27;19915;-74
2022/04/19 09:26:48;;;;;;;;;;;10.80;99.90;;;;;;5154437;27;19910;-74
2022/04/19 09:29:23;;;;;;;;;;;10.70;99.90;;;;;;5154590;27;20447;-74
2022/04/19 09:31:54;;;;;;;;;;;10.80;99.90;;;;;;5153978;27;19990;-74
2022/04/19 09:34:30;;;;;;;;;;;11.00;99.90;;;;;;5154011;27;20079;-74
2022/04/19 09:37:08;;;;;;;;;;;11.10;99.90;;;;;;5154523;27;19961;-74
2022/04/19 09:39:37;;;;;;;;;;;11.20;99.90;;;;;;5153795;27;19946;-74
2022/04/19 09:42:04;;;;;;;;;;;11.30;99.90;;;;;;5152891;27;19957;-74
2022/04/19 09:44:30;;;;;;;;;;;11.40;99.90;;;;;;5153584;27;19918;-74
2022/04/19 09:47:05;;;;;;;;;;;11.50;99.90;;;;;;5154374;27;19911;-74
2022/04/19 09:49:47;;;;;;;;;;;11.50;99.90;;;;;;5153627;27;20006;-74
2022/04/19 09:52:33;;;;;;;;;;;11.50;99.90;;;;;;5152604;27;19960;-75
2022/04/19 09:55:00;;;;;;;;;;;11.30;99.90;;;;;;5125945;27;20261;-74
2022/04/19 09:57:26;;;;;;;;;;;11.20;99.90;;;;;;5132506;27;19919;-75
2022/04/19 09:59:52;;;;;;;;;;;11.30;99.90;;;;;;5113721;27;20291;-74
2022/04/19 10:10:32;;;;;;;;;;;11.40;99.90;;;;;;5131475;27;19914;-75
2022/04/19 10:12:58;;;;;;;;;;;11.40;99.90;;;;;;5114728;27;20081;-74
2022/04/19 10:15:24;;;;;;;;;;;11.40;99.90;;;;;;5132018;27;19908;-74
2022/04/19 10:17:49;;;;;;;;;;;11.50;99.90;;;;;;5132085;27;19968;-75
2022/04/19 10:20:16;;;;;;;;;;;11.50;99.90;;;;;;5132371;27;20304;-75
2022/04/19 10:22:48;;;;;;;;;;;11.60;99.90;;;;;;5131863;27;20100;-75
2022/04/19 10:25:14;;;;;;;;;;;11.60;99.90;;;;;;5129275;27;20277;-74
2022/04/19 10:27:40;;;;;;;;;;;11.70;99.90;;;;;;5131799;27;19907;-74
2022/04/19 10:30:06;;;;;;;;;;;11.90;99.90;;;;;;5132134;27;19918;-74
2022/04/19 10:32:34;;;;;;;;;;;12.10;99.90;;;;;;5112671;27;19908;-74
2022/04/19 10:35:01;;;;;;;;;;;12.20;99.90;;;;;;5132047;27;19908;-75
2022/04/19 10:37:27;;;;;;;;;;;12.20;99.90;;;;;;5132192;27;19907;-74
2022/04/19 10:40:04;;;;;;;;;;;12.20;99.90;;;;;;5132530;27;19922;-74
2022/04/19 10:42:33;;;;;;;;;;;12.30;99.90;;;;;;5132104;27;19907;-75
2022/04/19 10:45:14;;;;;;;;;;;12.40;99.90;;;;;;5132535;27;19941;-74
2022/04/19 10:47:51;;;;;;;;;;;12.50;99.90;;;;;;5132381;28;19907;-74
2022/04/19 10:50:28;;;;;;;;;;;12.70;99.90;;;;;;5132609;28;19908;-74
2022/04/19 10:53:03;;;;;;;;;;;12.60;99.90;;;;;;5132299;28;19913;-74
2022/04/19 10:55:30;;;;;;;;;;;12.60;99.90;;;;;;5131823;28;19927;-74
2022/04/19 10:58:23;;;;;;;;;;;12.60;99.90;;;;;;5132331;28;19911;-74
2022/04/19 11:00:51;;;;;;;;;;;12.50;99.90;;;;;;5132499;28;20010;-74
2022/04/19 11:03:20;;;;;;;;;;;12.50;99.90;;;;;;5132488;28;19961;-75
2022/04/19 11:05:47;;;;;;;;;;;12.70;99.90;;;;;;5131908;28;19913;-75
2022/04/19 11:08:18;;;;;;;;;;;12.70;99.90;;;;;;5132186;28;19947;-75
2022/04/19 11:10:44;;;;;;;;;;;12.90;99.90;;;;;;5131247;28;20501;-75
2022/04/19 11:13:09;;;;;;;;;;;13.10;99.90;;;;;;5131724;27;19960;-74
2022/04/19 11:15:38;;;;;;;;;;;13.20;99.90;;;;;;5131782;28;19914;-75
2022/04/19 11:18:23;;;;;;;;;;;13.00;99.90;;;;;;5132154;28;19914;-75
2022/04/19 11:20:49;;;;;;;;;;;12.90;99.90;;;;;;5131937;28;19912;-74
2022/04/19 11:23:18;;;;;;;;;;;12.60;99.90;;;;;;5131822;28;19908;-75
2022/04/19 11:25:45;;;;;;;;;;;12.50;99.90;;;;;;5131258;28;19914;-74
2022/04/19 11:28:11;;;;;;;;;;;12.50;99.90;;;;;;5130940;28;19996;-75
2022/04/19 11:30:56;;;;;;;;;;;12.30;99.90;;;;;;5130502;28;20008;-75
2022/04/19 11:33:22;;;;;;;;;;;12.30;99.90;;;;;;5128696;27;19907;-75
2022/04/19 11:36:01;;;;;;;;;;;12.30;99.90;;;;;;5123387;27;19911;-74
2022/04/19 11:38:27;;;;;;;;;;;12.40;99.90;;;;;;5134297;27;19938;-74
2022/04/19 11:49:08;;;;;;;;;;;12.90;99.90;;;;;;5134894;27;19919;-75
2022/04/19 11:51:35;;;;;;;;;;;13.00;99.90;;;;;;5134243;27;19908;-75
2022/04/19 11:54:02;;;;;;;;;;;13.20;99.90;;;;;;5134167;27;19912;-75
2022/04/19 11:56:28;;;;;;;;;;;13.30;99.90;;;;;;5134227;27;19984;-75
2022/04/19 11:58:56;;;;;;;;;;;13.20;99.90;;;;;;5121118;27;19974;-75
2022/04/19 12:01:22;;;;;;;;;;;13.30;99.90;;;;;;5133591;27;19929;-75
2022/04/19 12:03:48;;;;;;;;;;;13.40;99.90;;;;;;5154345;27;19911;-75
2022/04/19 12:06:18;;;;;;;;;;;13.70;99.90;;;;;;5155485;27;19908;-75
2022/04/19 12:08:44;;;;;;;;;;;13.80;99.90;;;;;;5154605;27;19915;-75
2022/04/19 12:11:17;;;;;;;;;;;14.10;99.90;;;;;;5155427;27;19913;-74
2022/04/19 12:13:44;;;;;;;;;;;14.20;99.90;;;;;;5154125;27;20148;-75
2022/04/19 12:16:29;;;;;;;;;;;14.20;99.90;;;;;;5154626;27;19936;-75
2022/04/19 12:18:55;;;;;;;;;;;14.20;99.90;;;;;;5154731;27;19919;-75
2022/04/19 12:21:40;;;;;;;;;;;14.30;99.90;;;;;;5155413;27;19926;-74
2022/04/19 12:24:07;;;;;;;;;;;14.20;99.90;;;;;;5155582;27;19907;-74
2022/04/19 12:26:32;;;;;;;;;;;14.10;99.90;;;;;;5136314;27;19934;-74
2022/04/19 12:29:12;;;;;;;;;;;14.10;99.90;;;;;;5155665;27;20351;-74
2022/04/19 12:31:39;;;;;;;;;;;13.80;99.90;;;;;;5154896;27;19911;-76
2022/04/19 12:34:05;;;;;;;;;;;13.90;99.90;;;;;;5137021;27;19907;-76
2022/04/19 12:36:49;;;;;;;;;;;13.90;99.90;;;;;;5154686;27;19914;-74
2022/04/19 12:39:19;;;;;;;;;;;13.80;99.90;;;;;;5155391;27;19915;-76
2022/04/19 12:41:46;;;;;;;;;;;13.90;99.90;;;;;;5155029;27;19948;-74
2022/04/19 12:44:15;;;;;;;;;;;13.90;99.90;;;;;;5155374;27;19907;-75
2022/04/19 12:46:42;;;;;;;;;;;13.90;99.90;;;;;;5153903;27;20002;-75
2022/04/19 12:49:18;;;;;;;;;;;13.90;99.90;;;;;;5154530;27;19907;-74
2022/04/19 12:51:56;;;;;;;;;;;14.00;99.90;;;;;;5154865;27;19903;-77
2022/04/19 12:54:25;;;;;;;;;;;14.00;99.90;;;;;;5155115;27;19907;-76
2022/04/19 12:56:57;;;;;;;;;;;14.00;99.90;;;;;;5154272;27;19965;-75
2022/04/19 12:59:23;;;;;;;;;;;14.00;99.90;;;;;;5154874;27;19938;-74
2022/04/19 13:01:49;;;;;;;;;;;13.70;99.90;;;;;;5136242;27;20279;-74
2022/04/19 13:04:14;;;;;;;;;;;13.60;99.90;;;;;;5155185;27;20347;-74
2022/04/19 13:12:17;;;;;;;;;;;13.20;99.90;;;;;;5154717;27;20309;-75
2022/04/19 13:14:43;;;;;;;;;;;13.30;99.90;;;;;;5154319;27;19910;-75
2022/04/19 13:17:11;;;;;;;;;;;13.30;99.90;;;;;;5154092;27;20279;-75
2022/04/19 13:19:37;;;;;;;;;;;13.30;99.90;;;;;;5154039;27;19922;-75
2022/04/19 13:22:02;;;;;;;;;;;13.30;99.90;;;;;;5154424;27;19907;-75
2022/04/19 13:24:28;;;;;;;;;;;13.40;99.90;;;;;;5154113;27;19971;-75
2022/04/19 13:26:54;;;;;;;;;;;13.60;99.90;;;;;;5154666;27;19938;-75
2022/04/19 13:29:20;;;;;;;;;;;13.90;99.90;;;;;;5135626;27;19907;-75
2022/04/19 13:31:45;;;;;;;;;;;14.00;99.90;;;;;;5143295;27;19960;-75
2022/04/19 13:34:11;;;;;;;;;;;14.30;99.90;;;;;;5116459;27;20280;-75
2022/04/19 13:36:37;;;;;;;;;;;14.50;99.90;;;;;;5141951;27;19915;-75
2022/04/19 13:39:05;;;;;;;;;;;14.80;99.90;;;;;;5153846;27;19926;-75
2022/04/19 13:41:30;;;;;;;;;;;14.90;99.90;;;;;;5135219;27;19942;-75
2022/04/19 13:43:56;;;;;;;;;;;15.00;99.90;;;;;;5154041;27;19950;-75
2022/04/19 13:46:21;;;;;;;;;;;15.20;99.90;;;;;;5136301;27;19907;-75
2022/04/19 13:48:47;;;;;;;;;;;15.20;99.90;;;;;;5131621;27;19908;-75
2022/04/19 13:51:13;;;;;;;;;;;15.20;99.90;;;;;;5133012;27;19908;-75
2022/04/19 13:53:38;;;;;;;;;;;15.20;99.90;;;;;;5130487;27;19911;-75
2022/04/19 13:56:05;;;;;;;;;;;14.30;99.90;;;;;;5132798;27;19919;-75
2022/04/19 13:58:30;;;;;;;;;;;14.30;99.90;;;;;;5132081;27;20025;-75
2022/04/19 14:00:56;;;;;;;;;;;14.00;99.90;;;;;;5132795;27;20365;-75
2022/04/19 14:03:22;;;;;;;;;;;13.80;99.90;;;;;;5133229;27;20420;-75
2022/04/19 14:05:47;;;;;;;;;;;13.60;99.90;;;;;;5132444;27;19907;-76
2022/04/19 14:08:13;;;;;;;;;;;13.30;99.90;;;;;;5133238;27;19919;-77
2022/04/19 14:10:38;;;;;;;;;;;13.10;99.90;;;;;;5132127;27;20283;-76
2022/04/19 14:13:04;;;;;;;;;;;13.00;99.90;;;;;;5132802;27;19922;-76
2022/04/19 14:15:30;;;;;;;;;;;12.80;99.90;;;;;;5132852;27;19977;-76
2022/04/19 14:17:56;;;;;;;;;;;12.60;99.90;;;;;;5133140;27;19908;-76
2022/04/19 14:20:22;;;;;;;;;;;12.70;99.90;;;;;;5132761;27;19922;-76
2022/04/19 14:22:47;;;;;;;;;;;12.70;99.90;;;;;;5132390;27;20268;-76
2022/04/19 14:25:13;;;;;;;;;;;12.70;99.90;;;;;;5133046;27;19907;-77
2022/04/19 14:27:39;;;;;;;;;;;12.80;99.90;;;;;;5132176;27;19907;-76
2022/04/19 14:35:33;;;;;;;;;;;13.00;99.90;;;;;;5132666;27;19915;-76
2022/04/19 14:38:00;;;;;;;;;;;12.90;99.90;;;;;;5131413;27;19907;-76
2022/04/19 14:40:25;;;;;;;;;;;13.10;99.90;;;;;;5132468;27;19963;-75
2022/04/19 14:42:51;;;;;;;;;;;13.30;99.90;;;;;;5132636;27;20003;-75
2022/04/19 14:45:16;;;;;;;;;;;13.60;99.90;;;;;;5142064;27;19914;-76
2022/04/19 14:47:42;;;;;;;;;;;13.50;99.90;;;;;;5153011;27;20313;-75
2022/04/19 14:50:08;;;;;;;;;;;13.50;99.90;;;;;;5153535;27;19915;-76
2022/04/19 14:52:34;;;;;;;;;;;13.30;99.90;;;;;;5152858;27;19914;-75
2022/04/19 14:54:59;;;;;;;;;;;13.30;99.90;;;;;;5153560;27;19919;-76
2022/04/19 14:57:25;;;;;;;;;;;13.10;99.90;;;;;;5153481;27;19907;-76
2022/04/19 14:59:50;;;;;;;;;;;13.10;99.90;;;;;;5152689;27;19915;-76
2022/04/19 15:02:16;;;;;;;;;;;13.20;99.90;;;;;;5142663;27;20347;-76
2022/04/19 15:04:42;;;;;;;;;;;13.30;99.90;;;;;;5124469;27;20001;-76
2022/04/19 15:07:07;;;;;;;;;;;13.40;99.90;;;;;;5152657;27;19912;-76
2022/04/19 15:09:33;;;;;;;;;;;13.50;99.90;;;;;;5152457;27;19952;-76
2022/04/19 15:12:02;;;;;;;;;;;13.50;99.90;;;;;;5156325;27;19930;-77
2022/04/19 15:14:28;;;;;;;;;;;13.30;99.90;;;;;;5156867;27;19915;-76
2022/04/19 15:16:54;;;;;;;;;;;13.30;99.90;;;;;;5156956;27;19907;-75